Time;durP1;ratioP1;P1;durP2;ratioP2;P2;SDS_P1;SDS_P2;PMS_P1;PMS_P2;Temp;Humidity;BMP_temperature;BMP_pressure;BME280_temperature;BME280_humidity;BME280_pressure;Samples;Min_cycle;Max_cycle;Signal;HPM_P1;HPM_P2
2020/12/16 00:01:01;;;;;;;2.70;1.70;;;;;;;26.74;31.01;96525.63;4946497;28;20562;-42
2020/12/16 00:03:27;;;;;;;2.45;1.63;;;;;;;26.74;31.18;96520.34;4948656;28;20045;-43
2020/12/16 00:05:52;;;;;;;3.72;1.80;;;;;;;26.73;31.22;96522.13;4951689;28;20035;-44
2020/12/16 00:08:18;;;;;;;1.98;1.55;;;;;;;26.74;31.24;96520.34;4946807;28;20047;-44
2020/12/16 00:10:44;;;;;;;2.08;1.60;;;;;;;26.63;31.35;96499.13;4950480;28;20058;-41
2020/12/16 00:13:10;;;;;;;2.45;1.60;;;;;;;26.73;31.19;96518.66;4949879;28;20039;-39
2020/12/16 00:15:39;;;;;;;2.70;1.33;;;;;;;26.73;31.17;96521.28;4946968;28;20043;-43
2020/12/16 00:18:05;;;;;;;2.55;1.60;;;;;;;26.75;31.30;96516.78;4944372;28;20043;-44
2020/12/16 00:20:30;;;;;;;2.33;1.60;;;;;;;26.74;31.17;96515.94;4944352;28;20038;-43
2020/12/16 00:22:56;;;;;;;2.63;1.55;;;;;;;26.75;31.01;96524.66;4946733;28;20047;-41
2020/12/16 00:25:21;;;;;;;1.50;1.40;;;;;;;26.76;31.10;96522.91;4944556;28;20755;-42
2020/12/16 00:27:47;;;;;;;2.88;1.52;;;;;;;26.74;31.14;96529.06;4946569;28;20050;-43
2020/12/16 00:30:13;;;;;;;1.75;1.38;;;;;;;26.78;31.31;96529.75;4948954;28;20062;-41
2020/12/16 00:32:39;;;;;;;2.47;1.70;;;;;;;26.80;31.27;96517.34;4943130;28;20039;-42
2020/12/16 00:35:05;;;;;;;2.53;1.30;;;;;;;26.81;31.30;96519.03;4949503;28;20054;-44
2020/12/16 00:37:34;;;;;;;2.20;1.38;;;;;;;26.83;30.91;96524.19;4941611;28;20042;-44
2020/12/16 00:39:59;;;;;;;4.13;2.10;;;;;;;26.81;30.69;96516.38;4951378;28;21352;-42
2020/12/16 00:42:25;;;;;;;3.78;1.50;;;;;;;26.80;30.91;96525.22;4952525;28;20054;-42
2020/12/16 00:44:51;;;;;;;1.95;1.52;;;;;;;26.82;31.16;96533.03;4953851;28;20062;-43
2020/12/16 00:47:17;;;;;;;2.55;1.40;;;;;;;26.82;31.20;96530.41;4954433;28;20058;-43
2020/12/16 00:49:43;;;;;;;1.90;1.40;;;;;;;26.82;31.03;96530.41;4952189;28;20424;-43
2020/12/16 00:52:09;;;;;;;2.92;1.70;;;;;;;26.81;31.02;96533.97;4947765;28;20046;-43
2020/12/16 00:54:34;;;;;;;2.05;1.50;;;;;;;26.79;31.15;96536.69;4951142;28;20045;-42
2020/12/16 00:57:00;;;;;;;2.28;1.50;;;;;;;26.78;31.09;96542.88;4949954;28;20055;-39
2020/12/16 00:59:25;;;;;;;2.03;1.40;;;;;;;26.77;31.09;96546.44;4952820;28;20047;-41
2020/12/16 01:01:51;;;;;;;1.67;1.52;;;;;;;26.77;31.01;96551.69;4943430;28;20050;-43
2020/12/16 01:04:17;;;;;;;2.00;1.40;;;;;;;26.76;31.06;96555.28;4946370;28;20160;-43
2020/12/16 01:06:42;;;;;;;1.85;1.38;;;;;;;26.75;31.12;96553.59;4950006;28;20951;-44
2020/12/16 01:09:08;;;;;;;1.73;1.40;;;;;;;26.75;31.03;96558.84;4948041;28;20043;-41
2020/12/16 01:11:35;;;;;;;2.33;1.42;;;;;;;26.72;31.16;96553.75;4946403;28;20497;-42
2020/12/16 01:14:00;;;;;;;1.65;1.40;;;;;;;26.73;31.16;96555.44;4946392;28;20509;-43
2020/12/16 01:16:32;;;;;;;2.72;1.50;;;;;;;26.71;31.17;96562.59;4948147;28;20039;-42
2020/12/16 01:18:58;;;;;;;1.83;1.48;;;;;;;26.71;31.12;96563.44;4949171;28;20135;-43
2020/12/16 01:21:24;;;;;;;1.92;1.30;;;;;;;26.71;31.25;96560.81;4948905;28;20511;-42
2020/12/16 01:23:50;;;;;;;1.90;1.50;;;;;;;26.70;31.04;96571.41;4951684;28;20046;-41
2020/12/16 01:26:15;;;;;;;2.83;1.55;;;;;;;26.67;30.99;96566.34;4949844;28;20616;-43
2020/12/16 01:28:40;;;;;;;1.40;1.20;;;;;;;26.70;31.14;96576.69;4951967;28;20122;-39
2020/12/16 01:31:06;;;;;;;1.58;1.40;;;;;;;26.68;31.28;96574.13;4947417;28;20322;-43
2020/12/16 01:33:33;;;;;;;1.95;1.63;;;;;;;26.70;30.94;96571.41;4949597;28;20512;-40
2020/12/16 01:35:58;;;;;;;1.92;1.45;;;;;;;26.67;31.15;96574.22;4953301;28;20047;-42
2020/12/16 01:38:25;;;;;;;1.83;1.40;;;;;;;26.69;31.22;96569.75;4951863;28;20116;-41
2020/12/16 01:40:50;;;;;;;2.15;1.50;;;;;;;26.68;31.13;96568.03;4952738;28;20043;-45
2020/12/16 01:43:16;;;;;;;1.85;1.38;;;;;;;26.66;31.04;96569.91;4949376;28;20061;-41
2020/12/16 01:45:42;;;;;;;1.63;1.40;;;;;;;26.65;31.02;96565.59;4954190;28;20047;-42
2020/12/16 01:48:08;;;;;;;2.60;1.50;;;;;;;26.66;31.13;96569.91;4954552;28;20042;-43
2020/12/16 01:50:33;;;;;;;2.58;1.48;;;;;;;26.67;31.19;96561.09;4951180;28;20588;-43
2020/12/16 01:52:59;;;;;;;1.92;1.45;;;;;;;26.68;31.05;96573.28;4951449;28;20054;-43
2020/12/16 01:55:25;;;;;;;2.95;1.20;;;;;;;26.67;31.15;96571.59;4950415;28;20043;-44
2020/12/16 01:57:50;;;;;;;1.85;1.15;;;;;;;26.66;31.05;96562.84;4966035;28;20151;-42
2020/12/16 02:00:16;;;;;;;1.92;1.50;;;;;;;26.67;31.09;96572.47;4949608;28;20043;-41
2020/12/16 02:02:47;;;;;;;1.52;1.30;;;;;;;26.68;30.99;96570.66;4946678;28;20046;-43
2020/12/16 02:05:13;;;;;;;1.38;1.08;;;;;;;26.69;31.19;96572.38;4947203;28;20042;-41
2020/12/16 02:07:38;;;;;;;3.00;2.00;;;;;;;26.71;31.11;96573.09;4948667;28;20047;-42
2020/12/16 02:10:04;;;;;;;4.32;1.50;;;;;;;26.73;31.10;96568.59;4948441;28;20106;-44
2020/12/16 02:12:34;;;;;;;1.52;1.40;;;;;;;26.72;31.06;96564.28;4950813;28;20816;-41
2020/12/16 02:15:00;;;;;;;2.30;1.38;;;;;;;26.71;30.97;96568.72;4955437;28;20047;-43
2020/12/16 02:17:26;;;;;;;1.58;1.40;;;;;;;26.70;30.98;96564.38;4947127;28;20046;-39
2020/12/16 02:19:56;;;;;;;2.42;1.60;;;;;;;26.72;30.93;96572.16;4963688;28;20038;-42
2020/12/16 02:22:22;;;;;;;1.70;1.60;;;;;;;26.70;30.96;96572.25;4949405;28;20043;-40
2020/12/16 02:24:53;;;;;;;2.13;1.67;;;;;;;26.69;30.88;96556.59;4951004;28;20043;-40
2020/12/16 02:27:18;;;;;;;1.70;1.60;;;;;;;26.69;31.11;96564.47;4948204;28;20133;-43
2020/12/16 02:29:44;;;;;;;2.95;1.90;;;;;;;26.68;30.90;96562.78;4947011;28;20155;-42
2020/12/16 02:32:10;;;;;;;2.30;2.00;;;;;;;26.67;31.05;96555.81;4946938;28;20404;-42
2020/12/16 02:34:35;;;;;;;2.10;1.73;;;;;;;26.65;30.91;96552.47;4952646;28;20042;-40
2020/12/16 02:37:01;;;;;;;3.60;2.00;;;;;;;26.68;30.99;96553.13;4948223;28;20035;-43
2020/12/16 02:39:27;;;;;;;2.75;2.00;;;;;;;26.70;31.05;96547.78;4959574;28;20043;-41
2020/12/16 02:42:09;;;;;;;2.63;1.50;;;;;;;26.70;31.02;96564.38;4952559;28;20097;-41
2020/12/16 02:44:35;;;;;;;3.25;2.10;;;;;;;26.69;30.82;96567.94;4951450;28;20038;-43
2020/12/16 02:47:00;;;;;;;3.08;2.03;;;;;;;26.71;30.83;96573.09;4935985;28;20066;-43
2020/12/16 02:49:26;;;;;;;2.90;2.20;;;;;;;26.68;31.03;96573.28;4949721;28;20047;-42
2020/12/16 02:51:52;;;;;;;3.00;2.40;;;;;;;26.67;30.87;96582.13;4953134;28;20101;-41
2020/12/16 02:54:18;;;;;;;3.53;2.08;;;;;;;26.67;30.87;96587.38;4947951;28;20046;-43
2020/12/16 02:56:50;;;;;;;3.75;2.53;;;;;;;26.67;30.88;96582.13;4948868;28;20038;-44
2020/12/16 02:59:16;;;;;;;2.60;2.40;;;;;;;26.67;30.87;96574.22;4945989;28;20050;-42
2020/12/16 03:01:42;;;;;;;4.30;2.58;;;;;;;26.66;30.83;96575.16;4946269;28;20066;-43
2020/12/16 03:04:08;;;;;;;2.95;2.20;;;;;;;26.66;30.95;96565.47;4960009;28;20050;-41
2020/12/16 03:06:33;;;;;;;2.35;2.15;;;;;;;26.68;31.09;96573.28;4949609;28;20084;-43
2020/12/16 03:08:59;;;;;;;2.58;2.10;;;;;;;26.64;30.92;96566.53;4947365;28;20043;-41
2020/12/16 03:11:24;;;;;;;2.40;2.00;;;;;;;26.69;31.02;96575.00;4946612;28;20043;-40
2020/12/16 03:13:50;;;;;;;3.58;2.40;;;;;;;26.70;30.84;96574.06;4946742;28;20170;-41
2020/12/16 03:16:19;;;;;;;2.78;2.30;;;;;;;26.69;30.61;96582.88;4943995;28;20086;-42
2020/12/16 03:18:44;;;;;;;2.58;2.22;;;;;;;26.69;31.00;96575.00;4944207;28;20508;-43
2020/12/16 03:21:10;;;;;;;4.55;2.25;;;;;;;26.70;30.85;96571.41;4947214;28;20137;-44
2020/12/16 03:23:36;;;;;;;3.50;2.60;;;;;;;26.69;30.83;96575.00;4946938;28;20788;-39
2020/12/16 03:26:06;;;;;;;3.17;2.67;;;;;;;26.68;30.75;96570.66;4966010;28;20253;-42
2020/12/16 03:28:31;;;;;;;4.10;2.60;;;;;;;26.67;30.84;96566.34;4947241;28;20122;-41
2020/12/16 03:30:57;;;;;;;2.83;2.35;;;;;;;26.65;30.82;96570.88;4945300;28;20042;-42
2020/12/16 03:33:22;;;;;;;3.97;2.40;;;;;;;26.64;30.92;96572.63;4949888;28;20058;-44
2020/12/16 03:35:48;;;;;;;2.67;2.40;;;;;;;26.61;30.86;96562.28;4944682;28;20035;-44
2020/12/16 03:38:13;;;;;;;3.22;2.45;;;;;;;26.62;30.91;96566.63;4947459;28;20053;-42
2020/12/16 03:40:39;;;;;;;2.72;2.25;;;;;;;26.63;30.92;96562.22;4948558;28;20031;-41
2020/12/16 03:43:04;;;;;;;2.80;2.13;;;;;;;26.64;31.02;96563.88;4947833;28;20172;-40
2020/12/16 03:45:30;;;;;;;2.67;2.35;;;;;;;26.66;31.01;96567.28;4949190;28;20051;-44
2020/12/16 03:47:56;;;;;;;3.08;2.38;;;;;;;26.66;30.95;96564.66;4951316;28;20393;-40
2020/12/16 03:50:21;;;;;;;3.65;2.50;;;;;;;26.64;30.96;96574.41;4964089;28;20050;-44
2020/12/16 03:52:47;;;;;;;3.28;2.50;;;;;;;26.64;31.04;96571.78;4963516;28;20445;-40
2020/12/16 03:55:12;;;;;;;3.45;2.60;;;;;;;26.63;30.94;96570.09;4949540;28;20050;-40
2020/12/16 03:57:38;;;;;;;3.03;2.45;;;;;;;26.63;31.03;96564.84;4960035;28;20042;-42
2020/12/16 04:00:04;;;;;;;3.25;2.47;;;;;;;26.61;30.99;96568.41;4946612;28;21873;-44
2020/12/16 04:02:29;;;;;;;3.22;2.72;;;;;;;26.61;31.10;96576.28;4944902;28;20505;-45
2020/12/16 04:04:55;;;;;;;3.05;2.50;;;;;;;26.60;30.99;96571.97;4950013;28;20078;-43
2020/12/16 04:07:21;;;;;;;2.72;2.22;;;;;;;26.60;30.91;96571.97;4949879;28;20039;-42
2020/12/16 04:09:46;;;;;;;4.45;2.50;;;;;;;26.60;30.95;96571.97;4919780;28;20046;-42
2020/12/16 04:12:12;;;;;;;3.35;2.30;;;;;;;26.59;30.98;96572.91;4957425;28;20473;-42
2020/12/16 04:14:38;;;;;;;2.80;2.40;;;;;;;26.59;31.00;96570.25;4950100;28;20859;-44
2020/12/16 04:17:03;;;;;;;3.28;2.50;;;;;;;26.58;30.96;96571.22;4948390;28;20042;-43
2020/12/16 04:19:29;;;;;;;2.80;2.05;;;;;;;26.59;30.99;96574.69;4948330;28;20045;-43
2020/12/16 04:21:55;;;;;;;2.72;2.38;;;;;;;26.60;30.91;96571.97;4951707;28;20058;-43
2020/12/16 04:24:22;;;;;;;2.83;2.25;;;;;;;26.63;30.93;96572.72;4951620;28;20054;-41
2020/12/16 04:26:47;;;;;;;2.83;2.47;;;;;;;26.63;30.94;96572.72;4955359;28;20156;-39
2020/12/16 04:29:13;;;;;;;2.80;2.35;;;;;;;26.64;30.65;96577.03;4947903;28;20070;-42
2020/12/16 04:31:39;;;;;;;5.00;2.30;;;;;;;26.63;30.80;96575.34;4953007;28;20043;-42
2020/12/16 04:34:05;;;;;;;2.95;2.53;;;;;;;26.63;30.85;96591.13;4953791;28;20039;-41
2020/12/16 04:36:30;;;;;;;2.42;2.15;;;;;;;26.60;30.95;96589.53;4949850;28;20039;-43
2020/12/16 04:38:56;;;;;;;5.38;2.42;;;;;;;26.60;30.77;96587.75;4944614;28;20046;-42
2020/12/16 04:41:21;;;;;;;2.53;2.30;;;;;;;26.60;30.99;96585.13;4951942;28;20050;-42
2020/12/16 04:43:47;;;;;;;2.42;2.05;;;;;;;26.60;30.99;96587.75;4949777;28;20035;-42
2020/12/16 04:46:14;;;;;;;2.80;2.40;;;;;;;26.61;30.97;96581.56;4956716;28;20042;-42
2020/12/16 04:48:39;;;;;;;2.75;2.20;;;;;;;26.63;30.83;96580.59;4948833;28;20039;-44
2020/12/16 04:51:05;;;;;;;2.35;2.05;;;;;;;26.62;30.94;96587.66;4950899;28;20130;-41
2020/12/16 04:53:30;;;;;;;3.35;2.35;;;;;;;26.60;30.69;96593.00;4950854;28;20676;-42
2020/12/16 04:55:57;;;;;;;3.40;2.15;;;;;;;26.60;30.89;96585.13;4964843;28;20047;-43
2020/12/16 04:58:23;;;;;;;3.78;2.40;;;;;;;26.58;30.87;96589.59;4950835;28;20130;-43
2020/12/16 05:00:48;;;;;;;2.85;2.50;;;;;;;26.57;30.65;96587.94;4947735;28;20129;-43
2020/12/16 05:03:14;;;;;;;2.80;2.50;;;;;;;26.59;30.85;96591.28;4950175;28;20070;-42
2020/12/16 05:05:39;;;;;;;3.45;2.58;;;;;;;26.54;30.88;96593.34;4952700;28;20031;-41
2020/12/16 05:08:12;;;;;;;2.45;2.25;;;;;;;26.58;30.92;96586.97;4937548;28;20042;-43
2020/12/16 05:10:45;;;;;;;3.00;2.42;;;;;;;26.57;30.93;96587.94;4947312;28;20133;-40
2020/12/16 05:13:11;;;;;;;2.80;2.30;;;;;;;26.56;30.86;96596.75;4949780;28;20098;-40
2020/12/16 05:15:37;;;;;;;3.10;2.63;;;;;;;26.57;30.62;96600.22;4946679;28;20042;-40
2020/12/16 05:18:06;;;;;;;2.83;2.40;;;;;;;26.56;30.91;96596.75;4963254;28;20673;-44
2020/12/16 05:20:32;;;;;;;2.63;2.40;;;;;;;26.57;30.72;96603.69;4947047;28;20491;-43
2020/12/16 05:23:02;;;;;;;3.47;2.40;;;;;;;26.57;30.74;96603.69;4948686;28;20507;-43
2020/12/16 05:25:28;;;;;;;2.67;2.20;;;;;;;26.58;30.98;96605.38;4947524;28;20049;-41
2020/12/16 05:27:54;;;;;;;3.08;2.30;;;;;;;26.59;30.95;96606.22;4948004;28;20472;-43
2020/12/16 05:30:20;;;;;;;3.00;2.40;;;;;;;26.58;30.87;96608.00;4952092;28;20044;-43
2020/12/16 05:32:46;;;;;;;2.53;2.10;;;;;;;26.59;30.85;96612.31;4950492;28;20047;-41
2020/12/16 05:35:28;;;;;;;3.45;2.38;;;;;;;26.58;30.82;96610.63;4953159;28;20031;-44
2020/12/16 05:38:00;;;;;;;3.42;2.40;;;;;;;26.59;31.03;96608.88;4950214;28;20023;-48
2020/12/16 05:40:28;;;;;;;2.97;2.30;;;;;;;26.59;30.80;96604.44;4945213;28;20035;-44
2020/12/16 05:42:53;;;;;;;2.67;2.45;;;;;;;26.60;30.93;96613.19;4950440;28;20045;-40
2020/12/16 05:45:23;;;;;;;3.40;2.40;;;;;;;26.58;30.99;96602.75;4947430;28;20035;-41
2020/12/16 05:48:08;;;;;;;2.47;2.17;;;;;;;26.60;30.84;96616.66;4951645;28;20018;-41
2020/12/16 05:50:40;;;;;;;2.50;2.30;;;;;;;26.59;30.87;96628.09;4950768;28;20113;-42
2020/12/16 05:53:25;;;;;;;7.18;2.60;;;;;;;26.60;30.70;96631.56;4952416;28;20042;-41
2020/12/16 05:55:57;;;;;;;3.63;2.50;;;;;;;26.59;30.83;96628.09;4950426;28;20042;-43
2020/12/16 05:58:28;;;;;;;2.42;2.20;;;;;;;26.59;30.76;96633.34;4947270;28;20047;-46
2020/12/16 06:00:58;;;;;;;2.38;2.17;;;;;;;26.59;30.81;96628.09;4946695;28;20043;-42
2020/12/16 06:03:27;;;;;;;3.33;2.13;;;;;;;26.57;31.01;96629.97;4949504;28;20029;-41
2020/12/16 06:05:54;;;;;;;4.57;2.45;;;;;;;26.59;31.04;96645.66;4947569;28;20043;-41
2020/12/16 06:08:20;;;;;;;2.80;2.20;;;;;;;26.58;30.76;96638.72;4949370;28;20085;-42
2020/12/16 06:10:47;;;;;;;2.50;2.10;;;;;;;26.57;30.90;96651.00;4945178;28;20053;-43
2020/12/16 06:13:13;;;;;;;2.28;1.90;;;;;;;26.57;30.98;96653.63;4948338;28;20046;-45
2020/12/16 06:16:07;;;;;;;1.92;1.80;;;;;;;26.56;30.95;96648.44;4945570;28;20073;-42
2020/12/16 06:18:37;;;;;;;2.72;2.10;;;;;;;26.55;31.05;96644.97;4950847;28;20500;-42
2020/12/16 06:21:03;;;;;;;2.97;2.40;;;;;;;26.54;31.02;96635.41;4949920;28;20046;-41
2020/12/16 06:23:32;;;;;;;2.20;2.00;;;;;;;26.54;30.97;96634.56;4963661;28;20055;-43
2020/12/16 06:25:59;;;;;;;2.78;2.20;;;;;;;26.53;30.92;96638.09;4947927;28;20046;-41
2020/12/16 06:28:25;;;;;;;2.67;2.20;;;;;;;26.55;30.94;96652.84;4948542;28;20507;-40
2020/12/16 06:30:55;;;;;;;2.33;2.03;;;;;;;26.54;30.93;96660.84;4944076;28;20074;-42
2020/12/16 06:33:28;;;;;;;2.03;1.70;;;;;;;26.54;31.10;96656.41;4953561;28;20061;-42
2020/12/16 06:36:00;;;;;;;2.10;1.90;;;;;;;26.54;31.11;96655.59;4947043;28;20051;-42
2020/12/16 06:38:26;;;;;;;6.97;2.90;;;;;;;26.53;30.29;96654.75;4948307;28;20594;-42
2020/12/16 06:40:52;;;;;;;3.53;2.80;;;;;;;26.50;30.43;96660.16;4941846;28;20591;-43
2020/12/16 06:43:30;;;;;;;3.75;2.30;;;;;;;26.49;30.67;96658.47;4949922;28;20053;-44
2020/12/16 06:45:55;;;;;;;3.97;2.30;;;;;;;26.49;31.02;96653.22;4941121;28;20050;-42
2020/12/16 06:48:37;;;;;;;2.50;2.30;;;;;;;26.49;31.02;96658.47;4947645;28;20128;-43
2020/12/16 06:51:23;;;;;;;1.95;1.75;;;;;;;26.48;31.08;96659.41;4949503;28;20046;-42
2020/12/16 06:53:50;;;;;;;2.50;1.92;;;;;;;26.48;31.16;96646.28;4945408;28;20101;-42
2020/12/16 06:56:19;;;;;;;2.20;1.80;;;;;;;26.48;31.07;96646.28;4951653;28;20051;-43
2020/12/16 06:58:45;;;;;;;2.35;2.00;;;;;;;26.48;31.09;96651.53;4952188;28;20405;-42
2020/12/16 07:01:14;;;;;;;2.00;1.80;;;;;;;26.48;30.89;96651.53;4946630;28;20038;-43
2020/12/16 07:03:40;;;;;;;2.30;1.80;;;;;;;26.48;31.00;96652.38;4947030;28;20509;-43
2020/12/16 07:06:12;;;;;;;2.40;1.90;;;;;;;26.48;31.11;96659.41;4949410;28;20682;-43
2020/12/16 07:08:38;;;;;;;2.00;1.80;;;;;;;26.48;31.16;96664.69;4961520;28;20047;-40
2020/12/16 07:11:04;;;;;;;2.25;1.98;;;;;;;26.48;31.07;96667.31;4945688;28;20045;-41
2020/12/16 07:13:33;;;;;;;2.10;1.77;;;;;;;26.47;31.06;96678.75;4946856;28;21430;-43
2020/12/16 07:16:07;;;;;;;1.90;1.70;;;;;;;26.45;31.06;96684.09;4964806;28;20112;-46
2020/12/16 07:18:38;;;;;;;3.50;2.20;;;;;;;26.44;30.90;96669.28;4946534;28;20111;-44
2020/12/16 07:21:07;;;;;;;2.88;2.33;;;;;;;26.43;30.74;96680.69;4953163;28;20532;-42
2020/12/16 07:23:42;;;;;;;6.18;2.50;;;;;;;26.42;29.66;96672.91;4946715;28;20114;-42
2020/12/16 07:26:12;;;;;;;3.65;1.92;;;;;;;26.39;30.63;96675.72;4947711;28;20038;-42
2020/12/16 07:28:38;;;;;;;3.63;2.30;;;;;;;26.41;30.58;96677.31;4966260;28;20062;-44
2020/12/16 07:31:06;;;;;;;11.15;2.47;;;;;;;26.43;30.59;96687.75;4947382;28;20584;-40
2020/12/16 07:33:35;;;;;;;4.35;2.53;;;;;;;26.40;30.82;96690.53;4953818;28;20432;-48
2020/12/16 07:36:00;;;;;;;3.78;2.58;;;;;;;26.41;30.63;96694.84;4951986;28;20043;-43
2020/12/16 07:38:27;;;;;;;3.47;2.40;;;;;;;26.40;30.90;96701.06;4948506;28;20054;-46
2020/12/16 07:40:53;;;;;;;3.45;2.03;;;;;;;26.40;30.99;96698.44;4948971;28;20034;-43
2020/12/16 07:43:19;;;;;;;3.55;2.13;;;;;;;26.42;30.91;96701.78;4951518;28;20035;-42
2020/12/16 07:45:46;;;;;;;2.75;1.70;;;;;;;26.41;30.99;96694.84;4947865;28;20043;-42
2020/12/16 07:48:17;;;;;;;4.05;2.28;;;;;;;26.42;30.90;96699.16;4948323;28;20041;-38
2020/12/16 07:50:43;;;;;;;2.83;2.10;;;;;;;26.45;30.87;96707.75;4949157;28;20043;-44
2020/12/16 07:53:08;;;;;;;3.08;2.20;;;;;;;26.47;31.10;96712.91;4950135;28;20035;-43
2020/12/16 07:55:38;;;;;;;3.08;2.08;;;;;;;26.48;31.00;96714.59;4948514;28;20114;-43
2020/12/16 07:58:07;;;;;;;2.72;1.98;;;;;;;26.48;31.11;96710.16;4949395;28;20027;-40
2020/12/16 08:00:33;;;;;;;3.70;2.03;;;;;;;26.48;30.92;96701.47;4948589;28;20034;-43
2020/12/16 08:02:59;;;;;;;5.43;2.00;;;;;;;26.47;31.03;96699.78;4951539;28;20683;-43
2020/12/16 08:05:26;;;;;;;4.75;2.00;;;;;;;26.46;31.07;96695.44;4945383;28;20067;-42
2020/12/16 08:07:51;;;;;;;2.85;1.90;;;;;;;26.44;30.90;96692.06;4951661;28;20373;-44
2020/12/16 08:10:17;;;;;;;5.18;2.20;;;;;;;26.40;30.75;96695.78;4961646;28;20027;-43
2020/12/16 08:12:42;;;;;;;2.33;1.90;;;;;;;26.40;30.96;96691.41;4950006;28;20051;-44
2020/12/16 08:15:11;;;;;;;5.80;2.17;;;;;;;26.39;31.01;96699.38;4949304;28;20047;-42
2020/12/16 08:17:43;;;;;;;4.47;1.92;;;;;;;26.36;31.00;96705.66;4950284;28;21287;-44
2020/12/16 08:20:16;;;;;;;4.03;2.10;;;;;;;26.35;31.01;96704.78;4948735;28;20133;-41
2020/12/16 08:22:43;;;;;;;3.95;2.13;;;;;;;26.34;30.97;96707.50;4948136;28;20809;-43
2020/12/16 08:25:12;;;;;;;2.95;2.00;;;;;;;26.35;30.91;96710.03;4950340;28;20038;-48
2020/12/16 08:27:48;;;;;;;3.45;1.98;;;;;;;26.37;31.03;96711.72;4948901;28;20146;-43
2020/12/16 08:30:15;;;;;;;3.10;2.00;;;;;;;26.37;31.21;96711.72;4947229;28;20073;-44
2020/12/16 08:32:58;;;;;;;3.33;2.03;;;;;;;26.38;31.34;96709.00;4950598;28;20090;-51
2020/12/16 08:35:30;;;;;;;2.70;1.88;;;;;;;26.39;31.18;96713.31;4951159;28;20049;-43
2020/12/16 08:37:59;;;;;;;2.25;1.38;;;;;;;26.42;31.25;96717.56;4951096;28;20030;-42
2020/12/16 08:40:25;;;;;;;24.98;3.90;;;;;;;26.41;29.98;96708.00;4945209;28;20105;-44
2020/12/16 08:42:50;;;;;;;7.10;2.67;;;;;;;26.44;29.89;96710.47;4949935;28;20412;-43
2020/12/16 08:45:18;;;;;;;5.18;2.05;;;;;;;26.43;30.62;96706.97;4944771;28;20039;-44
2020/12/16 08:47:44;;;;;;;4.10;2.38;;;;;;;26.45;30.63;96704.25;4954957;28;20050;-44
2020/12/16 08:50:14;;;;;;;4.10;2.08;;;;;;;26.46;30.72;96698.91;4950310;28;20054;-42
2020/12/16 08:52:41;;;;;;;6.40;2.30;;;;;;;26.47;30.61;96703.22;4952732;28;20795;-42
2020/12/16 08:55:14;;;;;;;4.82;2.00;;;;;;;26.48;30.64;96699.66;4953902;28;20105;-43
2020/12/16 08:57:50;;;;;;;6.20;2.17;;;;;;;26.48;30.77;96711.97;4949880;28;20042;-43
2020/12/16 09:00:16;;;;;;;3.33;1.65;;;;;;;26.48;30.88;96712.81;4950003;28;20173;-42
2020/12/16 09:02:42;;;;;;;5.07;2.13;;;;;;;26.48;30.84;96704.91;4956082;28;20629;-42
2020/12/16 09:05:08;;;;;;;4.75;1.70;;;;;;;26.49;31.17;96713.66;4954190;28;20221;-43
2020/12/16 09:07:35;;;;;;;3.35;2.05;;;;;;;26.50;30.97;96712.72;4952840;28;20050;-40
2020/12/16 09:10:00;;;;;;;6.28;2.22;;;;;;;26.50;31.04;96717.97;4954463;28;20071;-44
2020/12/16 09:12:28;;;;;;;7.50;2.17;;;;;;;26.51;31.04;96724.94;4951623;28;20053;-44
2020/12/16 09:14:55;;;;;;;6.10;2.00;;;;;;;26.53;31.14;96727.47;4951449;28;20038;-44
2020/12/16 09:17:24;;;;;;;9.23;2.25;;;;;;;26.53;31.23;96730.94;4952880;28;20050;-42
2020/12/16 09:19:51;;;;;;;7.78;2.70;;;;;;;26.51;31.34;96732.84;4955319;28;20141;-42
2020/12/16 09:22:26;;;;;;;16.08;2.90;;;;;;;26.43;31.66;96728.00;4954066;28;20042;-43
2020/12/16 09:24:53;;;;;;;18.73;3.67;;;;;;;26.01;32.56;96740.78;4950891;28;20046;-43
2020/12/16 09:27:18;;;;;;;15.07;3.67;;;;;;;25.65;33.28;96747.94;4949143;28;20046;-36
2020/12/16 09:29:45;;;;;;;16.48;3.60;;;;;;;25.46;33.82;96745.41;4959767;28;20050;-38
2020/12/16 09:32:16;;;;;;;16.48;3.38;;;;;;;25.40;34.02;96740.50;4950742;28;20136;-39
2020/12/16 09:34:47;;;;;;;16.33;2.88;;;;;;;25.43;33.99;96740.31;4947704;28;21054;-38
2020/12/16 09:37:44;;;;;;;14.23;3.33;;;;;;;25.51;33.84;96735.53;4952713;28;20054;-39
2020/12/16 09:40:11;;;;;;;8.63;3.05;;;;;;;25.61;33.62;96735.06;4927436;28;20138;-39
2020/12/16 09:42:37;;;;;;;10.18;3.10;;;;;;;25.72;33.63;96730.09;4912204;28;20039;-41
2020/12/16 09:45:13;;;;;;;10.73;3.05;;;;;;;25.83;33.47;96730.34;4916671;28;20063;-42
2020/12/16 09:47:42;;;;;;;13.73;2.83;;;;;;;25.95;33.14;96735.88;4952588;28;20591;-40
2020/12/16 09:50:08;;;;;;;14.43;2.88;;;;;;;26.04;33.00;96729.25;4950246;28;20587;-41
2020/12/16 09:52:35;;;;;;;10.68;2.85;;;;;;;26.17;32.78;96729.44;4965950;28;20043;-40
2020/12/16 09:55:20;;;;;;;7.45;2.50;;;;;;;26.27;32.55;96733.25;4952039;28;20122;-39
2020/12/16 09:57:56;;;;;;;14.50;2.30;;;;;;;26.37;32.57;96732.75;4952949;28;20047;-41
2020/12/16 10:00:22;;;;;;;7.07;2.50;;;;;;;26.48;32.14;96727.75;4948008;28;20053;-36
2020/12/16 10:02:51;;;;;;;7.05;2.80;;;;;;;26.57;32.13;96724.59;4949025;28;20046;-37
2020/12/16 10:05:17;;;;;;;9.98;2.50;;;;;;;26.68;32.01;96723.09;4952538;28;20580;-35
2020/12/16 10:07:43;;;;;;;7.63;2.20;;;;;;;26.75;31.79;96729.72;4953133;28;20125;-42
2020/12/16 10:10:08;;;;;;;6.50;2.63;;;;;;;26.81;31.73;96721.44;4952520;28;20051;-41
2020/12/16 10:12:34;;;;;;;8.05;2.30;;;;;;;26.90;31.58;96725.34;4951935;28;20050;-41
2020/12/16 10:15:01;;;;;;;5.13;1.88;;;;;;;26.96;31.75;96724.19;4956347;28;20038;-39
2020/12/16 10:17:27;;;;;;;5.30;2.13;;;;;;;27.05;31.56;96728.03;4958125;28;20129;-38
2020/12/16 10:19:53;;;;;;;4.88;2.00;;;;;;;27.11;31.38;96725.03;4956133;28;20517;-37
2020/12/16 10:22:19;;;;;;;9.77;2.30;;;;;;;27.20;31.25;96718.38;4953884;28;20039;-35
2020/12/16 10:24:45;;;;;;;8.82;2.15;;;;;;;27.25;31.18;96716.31;4949827;28;20158;-40
2020/12/16 10:27:11;;;;;;;8.43;1.83;;;;;;;27.30;31.23;96708.16;4967784;28;20504;-36
2020/12/16 10:29:37;;;;;;;5.40;2.30;;;;;;;27.33;31.18;96718.47;4952215;28;20058;-35
2020/12/16 10:32:02;;;;;;;4.60;1.77;;;;;;;27.34;31.18;96713.13;4948104;28;20058;-44
2020/12/16 10:34:28;;;;;;;10.93;2.20;;;;;;;27.36;31.09;96715.66;4947191;28;20507;-39
2020/12/16 10:36:53;;;;;;;6.13;1.90;;;;;;;27.38;31.15;96711.13;4953356;28;20127;-42
2020/12/16 10:39:20;;;;;;;4.30;1.67;;;;;;;27.40;31.09;96706.63;4952403;28;20133;-40
2020/12/16 10:41:52;;;;;;;4.13;1.98;;;;;;;27.39;31.01;96716.31;4950580;28;20071;-43
2020/12/16 10:44:18;;;;;;;4.18;1.80;;;;;;;27.38;31.17;96704.09;4953540;28;20042;-40
2020/12/16 10:46:44;;;;;;;4.70;2.15;;;;;;;27.36;30.99;96706.00;4951968;28;20039;-39
2020/12/16 10:49:10;;;;;;;5.68;2.50;;;;;;;27.33;31.16;96706.16;4954046;28;20070;-40
2020/12/16 10:51:36;;;;;;;3.10;1.73;;;;;;;27.30;31.16;96706.34;4947307;28;20564;-37
2020/12/16 10:54:01;;;;;;;3.20;1.70;;;;;;;27.28;31.24;96708.25;4950696;28;20051;-42
2020/12/16 10:56:26;;;;;;;7.70;2.00;;;;;;;27.25;31.23;96708.41;4948419;28;21357;-40
2020/12/16 10:58:52;;;;;;;6.30;2.00;;;;;;;27.23;31.25;96707.69;4947343;28;20505;-39
2020/12/16 11:01:18;;;;;;;4.78;1.90;;;;;;;27.21;31.31;96702.50;4946260;28;20050;-42
2020/12/16 11:03:43;;;;;;;4.13;1.70;;;;;;;27.21;31.36;96696.38;4949212;28;20074;-38
2020/12/16 11:06:12;;;;;;;5.57;1.92;;;;;;;27.21;31.51;96691.13;4947825;28;20042;-43
2020/12/16 11:08:38;;;;;;;5.45;1.80;;;;;;;27.22;31.62;96692.81;4947802;28;20023;-41
2020/12/16 11:11:04;;;;;;;4.13;1.65;;;;;;;27.22;31.30;96693.66;4944930;28;20043;-39
2020/12/16 11:13:29;;;;;;;3.70;1.80;;;;;;;27.24;31.31;96696.22;4945521;28;20052;-41
2020/12/16 11:15:55;;;;;;;4.13;1.65;;;;;;;27.22;31.48;96690.19;4949168;28;20039;-40
2020/12/16 11:18:21;;;;;;;4.78;1.75;;;;;;;27.24;31.20;96690.94;4949344;28;20050;-42
2020/12/16 11:20:46;;;;;;;3.50;1.50;;;;;;;27.17;31.23;96671.19;4951368;28;20051;-40
2020/12/16 11:23:12;;;;;;;3.78;1.80;;;;;;;27.31;31.04;96679.09;4952159;28;21476;-38
2020/12/16 11:25:37;;;;;;;3.67;1.60;;;;;;;27.36;31.01;96674.41;4949190;28;20483;-42
2020/12/16 11:28:03;;;;;;;3.42;1.70;;;;;;;27.39;30.92;96658.41;4952199;28;20043;-42
2020/12/16 11:30:29;;;;;;;4.18;1.80;;;;;;;27.44;30.76;96658.16;4951703;28;20043;-41
2020/12/16 11:32:54;;;;;;;2.70;1.60;;;;;;;27.46;30.81;96656.25;4951397;28;20050;-40
2020/12/16 11:35:21;;;;;;;6.95;1.70;;;;;;;27.49;30.70;96652.56;4951018;28;20054;-38